Time;durP1;ratioP1;P1;durP2;ratioP2;P2;SDS_P1;SDS_P2;PMS_P1;PMS_P2;Temp;Humidity;BMP_temperature;BMP_pressure;BME280_temperature;BME280_humidity;BME280_pressure;Samples;Min_cycle;Max_cycle;Signal;HPM_P1;HPM_P2
2024/03/28 00:01:54;;;;;;;;;;;;;;;18.13;44.83;96864.19;10332238;28;896;-73
2024/03/28 00:06:49;;;;;;;;;;;;;;;18.12;44.64;96859.06;10329777;28;1955;-73
2024/03/28 00:11:45;;;;;;;;;;;;;;;18.11;44.70;96862.66;10329945;28;1075;-73
2024/03/28 00:16:42;;;;;;;;;;;;;;;18.10;44.74;96869.75;10329914;28;810;-73
2024/03/28 00:21:37;;;;;;;;;;;;;;;18.09;44.75;96875.97;10331611;28;925;-73
2024/03/28 00:26:33;;;;;;;;;;;;;;;18.08;44.56;96892.78;10330700;28;1893;-73
2024/03/28 00:31:29;;;;;;;;;;;;;;;18.07;44.51;96883.19;10329507;28;1089;-73
2024/03/28 00:36:25;;;;;;;;;;;;;;;18.07;44.59;96875.28;10329991;28;886;-73
2024/03/28 00:41:21;;;;;;;;;;;;;;;18.05;44.55;96853.53;10329016;28;1016;-73
2024/03/28 00:46:17;;;;;;;;;;;;;;;18.05;44.67;96852.66;10329557;28;1922;-73
2024/03/28 00:51:13;;;;;;;;;;;;;;;18.04;44.77;96864.19;10328552;28;922;-73
2024/03/28 00:56:08;;;;;;;;;;;;;;;18.03;44.84;96834.38;10329509;28;842;-73
2024/03/28 01:01:04;;;;;;;;;;;;;;;18.02;44.85;96830.06;10329373;28;885;-73
2024/03/28 01:06:00;;;;;;;;;;;;;;;18.01;44.72;96830.22;10328759;28;1890;-73
2024/03/28 01:10:56;;;;;;;;;;;;;;;18.00;44.79;96832.03;10329163;28;952;-73
2024/03/28 01:15:52;;;;;;;;;;;;;;;18.00;44.62;96817.97;10328775;28;818;-73
2024/03/28 01:20:48;;;;;;;;;;;;;;;17.99;44.68;96800.53;10327826;28;932;-73
2024/03/28 01:25:43;;;;;;;;;;;;;;;17.98;44.81;96796.22;10328734;28;1951;-73
2024/03/28 01:30:39;;;;;;;;;;;;;;;17.97;44.51;96784.84;10327573;28;1346;-73
2024/03/28 01:35:35;;;;;;;;;;;;;;;17.98;44.51;96775.16;10327701;28;778;-73
2024/03/28 01:40:31;;;;;;;;;;;;;;;17.96;44.63;96764.72;10327152;28;885;-73
2024/03/28 01:45:27;;;;;;;;;;;;;;;17.96;44.67;96775.28;10326878;28;1906;-73
2024/03/28 01:50:23;;;;;;;;;;;;;;;17.94;44.57;96775.41;10327353;28;822;-73
2024/03/28 01:55:19;;;;;;;;;;;;;;;17.94;44.57;96777.22;10326807;28;949;-73
2024/03/28 02:00:15;;;;;;;;;;;;;;;17.93;44.55;96784.28;10325825;28;992;-73
2024/03/28 02:05:10;;;;;;;;;;;;;;;17.92;44.64;96768.59;10326207;28;1894;-73
2024/03/28 02:10:06;;;;;;;;;;;;;;;17.91;44.54;96770.41;10325401;28;1020;-73
2024/03/28 02:15:02;;;;;;;;;;;;;;;17.91;44.82;96780.97;10326007;28;876;-73
2024/03/28 02:19:58;;;;;;;;;;;;;;;17.91;44.63;96780.13;10326613;28;974;-73
2024/03/28 02:24:54;;;;;;;;;;;;;;;17.88;44.59;96765.44;10326234;28;1952;-73
2024/03/28 02:29:50;;;;;;;;;;;;;;;17.88;44.80;96762.78;10325154;28;1131;-73
2024/03/28 02:34:46;;;;;;;;;;;;;;;17.88;44.59;96762.78;10325386;28;900;-73
2024/03/28 02:39:42;;;;;;;;;;;;;;;17.87;44.61;96755.06;10325388;28;851;-73
2024/03/28 02:44:38;;;;;;;;;;;;;;;17.87;44.67;96758.50;10325239;28;1992;-73
2024/03/28 02:49:34;;;;;;;;;;;;;;;17.86;44.75;96756.81;10325230;28;964;-73
2024/03/28 02:54:30;;;;;;;;;;;;;;;17.84;44.54;96747.41;10325112;28;872;-73
2024/03/28 02:59:25;;;;;;;;;;;;;;;17.85;44.66;96749.09;10324507;28;842;-73
2024/03/28 03:04:21;;;;;;;;;;;;;;;17.85;44.54;96733.28;10326030;28;1953;-73
2024/03/28 03:09:17;;;;;;;;;;;;;;;17.84;44.58;96742.13;10324950;28;829;-73
2024/03/28 03:14:13;;;;;;;;;;;;;;;17.82;44.57;96739.66;10324765;28;881;-73
2024/03/28 03:19:10;;;;;;;;;;;;;;;17.82;44.61;96752.00;10325241;28;921;-73
2024/03/28 03:24:06;;;;;;;;;;;;;;;17.82;44.75;96757.28;10324500;28;1949;-73
2024/03/28 03:34:35;;;;;;;;;;;;;;;17.81;44.60;96747.69;10324508;28;636;-73
2024/03/28 03:39:31;;;;;;;;;;;;;;;17.80;44.42;96746.03;10324354;28;789;-73
2024/03/28 03:44:26;;;;;;;;;;;;;;;17.79;44.57;96725.88;10327979;28;1959;-73
2024/03/28 03:49:22;;;;;;;;;;;;;;;17.78;44.59;96718.97;10332760;28;888;-73
2024/03/28 03:54:18;;;;;;;;;;;;;;;17.77;44.52;96720.78;10331379;28;767;-73
2024/03/28 03:59:14;;;;;;;;;;;;;;;17.76;44.47;96705.91;10332133;28;872;-73
2024/03/28 04:04:10;;;;;;;;;;;;;;;17.76;44.56;96695.38;10331513;28;1956;-73
2024/03/28 04:09:08;;;;;;;;;;;;;;;17.75;44.61;96697.19;10331153;28;857;-73
2024/03/28 04:14:04;;;;;;;;;;;;;;;17.74;44.47;96692.91;10330805;28;755;-73
2024/03/28 04:19:00;;;;;;;;;;;;;;;17.74;44.71;96679.72;10331086;28;902;-73
2024/03/28 04:23:56;;;;;;;;;;;;;;;17.73;44.66;96672.78;10330754;28;1894;-73
2024/03/28 04:28:52;;;;;;;;;;;;;;;17.73;44.46;96651.72;10330635;28;1169;-73
2024/03/28 04:33:48;;;;;;;;;;;;;;;17.73;44.56;96645.63;10330701;28;961;-73
2024/03/28 04:38:44;;;;;;;;;;;;;;;17.72;44.51;96634.25;10329936;28;795;-73
2024/03/28 04:43:40;;;;;;;;;;;;;;;17.71;44.46;96626.47;10330062;28;1974;-73
2024/03/28 04:48:36;;;;;;;;;;;;;;;17.72;44.55;96612.34;10329944;28;901;-73
2024/03/28 04:53:31;;;;;;;;;;;;;;;17.72;44.45;96618.44;10328082;28;920;-73
2024/03/28 04:58:27;;;;;;;;;;;;;;;17.73;44.51;96609.56;10329552;28;888;-73
2024/03/28 05:03:23;;;;;;;;;;;;;;;17.75;44.58;96601.53;10328849;28;979;-73
2024/03/28 05:08:19;;;;;;;;;;;;;;;17.75;44.52;96594.44;10328454;28;1890;-74
2024/03/28 05:13:15;;;;;;;;;;;;;;;17.77;44.71;96588.22;10328345;28;770;-73
2024/03/28 05:18:11;;;;;;;;;;;;;;;17.79;44.63;96588.88;10327564;28;901;-73
2024/03/28 05:23:07;;;;;;;;;;;;;;;17.80;44.69;96582.69;10327347;28;889;-72
2024/03/28 05:28:02;;;;;;;;;;;;;;;17.81;44.57;96587.81;10328149;28;1953;-72
2024/03/28 05:33:00;;;;;;;;;;;;;;;17.83;44.43;96590.31;10328709;28;1395;-74
2024/03/28 05:37:56;;;;;;;;;;;;;;;17.83;44.61;96590.31;10327291;28;863;-73
2024/03/28 05:42:52;;;;;;;;;;;;;;;17.84;44.47;96584.06;10328353;28;924;-76
2024/03/28 05:47:48;;;;;;;;;;;;;;;17.85;44.44;96585.72;10326228;28;1971;-72
2024/03/28 05:52:44;;;;;;;;;;;;;;;17.87;44.65;96578.53;10326751;28;830;-72
2024/03/28 05:57:39;;;;;;;;;;;;;;;17.87;44.56;96581.16;10324505;28;1022;-72
2024/03/28 06:02:35;;;;;;;;;;;;;;;17.88;44.56;96570.44;10326346;28;961;-73
2024/03/28 06:07:31;;;;;;;;;;;;;;;17.91;44.51;96564.06;10306952;28;1971;-74
2024/03/28 06:12:27;;;;;;;;;;;;;;;17.92;44.50;96549.91;10325829;28;759;-72
2024/03/28 06:17:23;;;;;;;;;;;;;;;17.91;44.61;96538.53;10325358;28;776;-72
2024/03/28 06:22:19;;;;;;;;;;;;;;;17.93;44.53;96535.78;10325600;28;826;-73
2024/03/28 06:27:15;;;;;;;;;;;;;;;17.94;44.63;96530.34;10325808;28;1889;-73
2024/03/28 06:32:13;;;;;;;;;;;;;;;17.94;44.79;96537.41;10324685;28;1276;-73
2024/03/28 06:37:09;;;;;;;;;;;;;;;17.95;44.70;96557.53;10325005;28;890;-73
2024/03/28 06:42:06;;;;;;;;;;;;;;;17.96;44.60;96570.56;10325031;28;818;-72
2024/03/28 06:47:02;;;;;;;;;;;;;;;17.97;44.61;96566.09;10324651;28;1910;-72
2024/03/28 06:51:58;;;;;;;;;;;;;;;17.97;44.58;96568.75;10325762;28;941;-72
2024/03/28 06:56:54;;;;;;;;;;;;;;;17.98;44.67;96570.41;10324282;28;755;-72
2024/03/28 07:01:50;;;;;;;;;;;;;;;17.97;44.61;96568.75;10324890;28;814;-72
2024/03/28 07:06:46;;;;;;;;;;;;;;;17.98;44.66;96583.59;10324823;28;1890;-72
2024/03/28 07:11:45;;;;;;;;;;;;;;;17.98;44.78;96585.41;10324901;28;905;-73
2024/03/28 07:16:41;;;;;;;;;;;;;;;17.96;44.63;96585.53;10324687;28;902;-73
2024/03/28 07:21:37;;;;;;;;;;;;;;;17.96;44.75;96593.44;10332467;28;802;-73
2024/03/28 07:26:33;;;;;;;;;;;;;;;17.94;44.49;96588.31;10331986;28;1918;-73
2024/03/28 07:31:30;;;;;;;;;;;;;;;17.93;44.63;96601.66;10331654;28;1284;-73
2024/03/28 07:36:26;;;;;;;;;;;;;;;17.92;44.60;96606.09;10331703;28;874;-73
2024/03/28 07:41:22;;;;;;;;;;;;;;;17.91;44.51;96612.31;10331416;28;789;-76
2024/03/28 07:46:18;;;;;;;;;;;;;;;17.91;44.57;96617.59;10331361;28;1965;-77
2024/03/28 07:51:14;;;;;;;;;;;;;;;17.92;44.41;96600.81;10331559;28;881;-73
2024/03/28 07:56:10;;;;;;;;;;;;;;;17.91;44.37;96601.78;10331338;28;1386;-75
2024/03/28 08:01:09;;;;;;;;;;;;;;;17.90;44.23;96605.41;10330093;28;909;-73
2024/03/28 08:06:05;;;;;;;;;;;;;;;17.91;44.19;96603.59;10329934;28;1897;-73
2024/03/28 08:11:00;;;;;;;;;;;;;;;17.90;44.37;96596.66;10330299;28;870;-73
2024/03/28 08:15:56;;;;;;;;;;;;;;;17.90;44.25;96594.03;10330267;28;815;-73
2024/03/28 08:20:52;;;;;;;;;;;;;;;17.92;44.40;96586.78;10329378;28;830;-73
2024/03/28 08:25:48;;;;;;;;;;;;;;;17.93;44.39;96577.94;10329758;28;1893;-73
2024/03/28 08:30:44;;;;;;;;;;;;;;;17.94;44.39;96580.41;10329322;28;1475;-74
2024/03/28 08:35:40;;;;;;;;;;;;;;;17.95;44.12;96574.19;10330114;28;789;-74
2024/03/28 08:40:36;;;;;;;;;;;;;;;17.94;44.30;96583.03;10329890;28;818;-74
2024/03/28 08:45:32;;;;;;;;;;;;;;;17.95;44.11;96584.72;10329525;28;1976;-73
2024/03/28 08:50:28;;;;;;;;;;;;;;;17.95;44.20;96587.34;10329525;28;1711;-74
2024/03/28 08:55:24;;;;;;;;;;;;;;;17.96;44.38;96601.34;10329158;28;886;-74
2024/03/28 09:00:24;;;;;;;;;;;;;;;17.95;44.28;96615.53;10328473;28;899;-76
2024/03/28 09:05:20;;;;;;;;;;;;;;;17.97;44.32;96621.44;10328724;28;1960;-75
2024/03/28 09:10:15;;;;;;;;;;;;;;;17.97;44.41;96632.00;10328351;28;953;-76
2024/03/28 09:15:11;;;;;;;;;;;;;;;17.97;44.25;96634.63;10327834;28;992;-71
2024/03/28 09:20:07;;;;;;;;;;;;;;;17.98;44.52;96648.66;10327707;28;814;-74
2024/03/28 09:25:03;;;;;;;;;;;;;;;17.99;44.36;96653.75;10327500;28;1959;-74
2024/03/28 09:29:59;;;;;;;;;;;;;;;17.98;44.25;96641.56;10327607;28;1081;-73
2024/03/28 09:34:55;;;;;;;;;;;;;;;18.00;44.30;96630.88;10327194;28;941;-73
2024/03/28 09:39:51;;;;;;;;;;;;;;;18.03;44.35;96638.53;10326492;28;949;-76
2024/03/28 09:44:47;;;;;;;;;;;;;;;18.01;44.36;96638.66;10327454;28;1918;-72
2024/03/28 09:49:42;;;;;;;;;;;;;;;18.03;44.45;96649.06;10326307;28;853;-73
2024/03/28 10:28:44;;;;;;;;;;;;;;;17.97;44.27;96705.78;10444309;27;1236;-72
2024/03/28 10:33:40;;;;;;;;;;;;;;;17.96;44.21;96704.13;10443739;28;826;-73
2024/03/28 10:38:36;;;;;;;;;;;;;;;17.95;44.18;96728.81;10444231;27;932;-73
2024/03/28 10:43:32;;;;;;;;;;;;;;;17.97;44.32;96737.41;10443996;27;1918;-72
2024/03/28 10:48:28;;;;;;;;;;;;;;;17.98;44.19;96751.44;10443248;27;780;-71
2024/03/28 10:53:24;;;;;;;;;;;;;;;17.96;44.32;96757.66;10442474;27;924;-72
2024/03/28 10:58:20;;;;;;;;;;;;;;;17.98;44.17;96775.97;10442994;27;824;-73
2024/03/28 11:03:17;;;;;;;;;;;;;;;17.98;44.45;96777.78;10443265;27;988;-73
2024/03/28 11:08:13;;;;;;;;;;;;;;;17.99;44.31;96774.16;10442298;27;1901;-73
2024/03/28 11:13:09;;;;;;;;;;;;;;;17.98;44.40;96804.13;10443424;27;802;-73
2024/03/28 11:18:05;;;;;;;;;;;;;;;17.98;44.32;96789.16;10441913;27;857;-73
2024/03/28 11:23:01;;;;;;;;;;;;;;;17.98;44.39;96797.06;10441281;27;892;-73
2024/03/28 11:27:57;;;;;;;;;;;;;;;18.01;44.31;96801.22;10423466;27;1889;-73
2024/03/28 11:32:52;;;;;;;;;;;;;;;18.00;44.38;96810.94;10413919;28;875;-73
2024/03/28 11:37:50;;;;;;;;;;;;;;;18.01;44.11;96832.84;10413486;28;817;-76
2024/03/28 11:42:46;;;;;;;;;;;;;;;18.00;44.16;96837.28;10413271;28;846;-73
2024/03/28 11:47:42;;;;;;;;;;;;;;;18.01;44.03;96833.66;10412993;27;1968;-73
2024/03/28 11:52:38;;;;;;;;;;;;;;;18.03;44.02;96842.28;10413582;28;838;-75
2024/03/28 11:57:34;;;;;;;;;;;;;;;18.03;44.24;96847.53;10413292;28;880;-76
2024/03/28 12:02:30;;;;;;;;;;;;;;;18.06;44.11;96875.44;10412524;28;1010;-73
2024/03/28 12:07:25;;;;;;;;;;;;;;;18.06;44.08;96876.25;10412921;28;1953;-73
2024/03/28 12:12:21;;;;;;;;;;;;;;;18.08;44.31;96870.88;10411591;28;930;-73
2024/03/28 12:17:17;;;;;;;;;;;;;;;18.09;44.14;96886.53;10412525;28;813;-74
2024/03/28 12:22:13;;;;;;;;;;;;;;;18.11;44.13;96881.94;10412973;27;849;-70
2024/03/28 12:27:09;;;;;;;;;;;;;;;18.11;44.12;96887.22;10411828;28;1969;-73
2024/03/28 12:32:06;;;;;;;;;;;;;;;18.11;44.12;96899.56;10410855;28;1027;-73
2024/03/28 12:37:02;;;;;;;;;;;;;;;18.09;44.11;96901.50;10410440;28;778;-75
2024/03/28 12:41:58;;;;;;;;;;;;;;;18.08;44.20;96907.75;10411204;28;952;-72
2024/03/28 12:46:54;;;;;;;;;;;;;;;18.08;43.86;96929.69;10410647;28;1961;-75
2024/03/28 12:51:50;;;;;;;;;;;;;;;18.11;44.18;96918.84;10410519;28;768;-72
2024/03/28 12:56:46;;;;;;;;;;;;;;;18.12;43.97;96933.69;10410368;28;888;-72
2024/03/28 13:01:41;;;;;;;;;;;;;;;18.17;44.06;96926.19;10410133;28;917;-72
2024/03/28 13:06:38;;;;;;;;;;;;;;;18.24;43.74;96917.75;10409246;28;1956;-72
2024/03/28 13:11:34;;;;;;;;;;;;;;;18.28;43.83;96934.94;10409701;28;856;-72
2024/03/28 13:16:29;;;;;;;;;;;;;;;18.32;43.71;96933.72;10409537;28;937;-72
2024/03/28 13:21:30;;;;;;;;;;;;;;;18.27;43.68;96949.94;10409968;28;873;-72
2024/03/28 13:26:25;;;;;;;;;;;;;;;18.23;43.70;96953.81;10409639;28;1894;-78
2024/03/28 13:31:22;;;;;;;;;;;;;;;18.23;43.91;96958.25;10408388;28;1008;-71
2024/03/28 13:36:18;;;;;;;;;;;;;;;18.22;43.90;96973.25;10409074;28;945;-71
2024/03/28 13:41:14;;;;;;;;;;;;;;;18.20;43.89;96985.72;10409068;28;841;-72
2024/03/28 13:46:10;;;;;;;;;;;;;;;18.20;43.44;97016.53;10409036;28;1973;-72
2024/03/28 13:51:06;;;;;;;;;;;;;;;18.18;43.80;97046.53;10408437;28;992;-71
2024/03/28 13:56:01;;;;;;;;;;;;;;;18.16;43.55;97080.09;10408590;27;876;-71
2024/03/28 14:00:57;;;;;;;;;;;;;;;18.15;43.72;97088.94;10408475;28;940;-71
2024/03/28 14:05:53;;;;;;;;;;;;;;;18.18;43.52;97088.69;10407222;28;1897;-71
2024/03/28 14:10:49;;;;;;;;;;;;;;;18.43;43.11;97093.63;10407037;28;885;-71
2024/03/28 14:15:45;;;;;;;;;;;;;;;18.45;43.33;97099.59;10408174;28;866;-71
2024/03/28 14:20:41;;;;;;;;;;;;;;;18.59;43.33;97102.66;10407390;28;770;-71
2024/03/28 14:25:37;;;;;;;;;;;;;;;18.71;43.21;97099.94;10407638;28;1897;-71
2024/03/28 14:30:33;;;;;;;;;;;;;;;18.79;43.16;97097.47;10407986;28;892;-71
2024/03/28 14:35:29;;;;;;;;;;;;;;;18.89;42.90;97095.69;10407108;28;868;-71
2024/03/28 14:40:25;;;;;;;;;;;;;;;18.76;43.24;97097.75;10407636;28;1199;-71
2024/03/28 14:45:21;;;;;;;;;;;;;;;18.78;43.05;97111.63;10407655;28;1975;-72
2024/03/28 14:50:17;;;;;;;;;;;;;;;18.70;43.25;97107.00;10407717;28;857;-71
2024/03/28 14:55:14;;;;;;;;;;;;;;;19.01;42.79;97107.75;10406923;28;888;-71
2024/03/28 15:00:10;;;;;;;;;;;;;;;19.09;42.67;97109.69;10406627;28;1217;-72
2024/03/28 15:05:06;;;;;;;;;;;;;;;19.03;42.78;97115.53;10413669;28;1901;-71
2024/03/28 15:10:02;;;;;;;;;;;;;;;18.79;43.25;97114.13;10414792;28;877;-71
2024/03/28 15:14:58;;;;;;;;;;;;;;;18.72;43.13;97122.69;10414733;28;805;-71
2024/03/28 15:19:54;;;;;;;;;;;;;;;18.68;43.29;97127.44;10413918;28;757;-71
2024/03/28 15:24:50;;;;;;;;;;;;;;;18.68;43.01;97131.84;10413428;27;1954;-71
2024/03/28 15:29:46;;;;;;;;;;;;;;;18.64;43.05;97133.09;10412945;28;885;-72
2024/03/28 15:34:42;;;;;;;;;;;;;;;18.61;43.18;97136.84;10413979;28;916;-72
2024/03/28 15:39:38;;;;;;;;;;;;;;;18.58;42.97;97140.59;10413247;28;881;-72
2024/03/28 15:44:34;;;;;;;;;;;;;;;18.56;42.97;97150.44;10413550;28;1972;-71
2024/03/28 15:49:30;;;;;;;;;;;;;;;18.53;43.11;97155.97;10412783;28;920;-71
2024/03/28 15:54:25;;;;;;;;;;;;;;;18.52;43.24;97156.97;10413865;28;857;-72
2024/03/28 15:59:21;;;;;;;;;;;;;;;18.49;43.09;97159.84;10412448;28;911;-71
2024/03/28 16:04:17;;;;;;;;;;;;;;;18.48;43.17;97175.81;10412679;28;1965;-71
2024/03/28 16:09:13;;;;;;;;;;;;;;;18.45;43.20;97184.84;10412790;28;873;-72
2024/03/28 16:14:09;;;;;;;;;;;;;;;18.45;43.19;97194.56;10412782;28;911;-72
2024/03/28 16:19:05;;;;;;;;;;;;;;;18.43;43.24;97201.75;10411611;28;857;-71
2024/03/28 16:24:02;;;;;;;;;;;;;;;18.40;42.89;97250.34;10411632;28;1901;-71
2024/03/28 16:28:58;;;;;;;;;;;;;;;18.39;43.10;97248.63;10411303;28;830;-71
2024/03/28 16:33:54;;;;;;;;;;;;;;;18.37;43.08;97264.63;10411708;28;855;-72
2024/03/28 16:38:50;;;;;;;;;;;;;;;18.35;43.48;97248.06;10411499;28;821;-71
2024/03/28 16:43:46;;;;;;;;;;;;;;;18.35;43.14;97268.34;10410562;28;1981;-72
2024/03/28 16:48:41;;;;;;;;;;;;;;;18.33;43.24;97286.94;10410455;28;818;-72
2024/03/28 16:53:37;;;;;;;;;;;;;;;18.32;43.03;97295.81;10411866;28;920;-72
2024/03/28 16:58:33;;;;;;;;;;;;;;;18.32;43.16;97300.25;10410045;28;826;-73
2024/03/28 17:03:29;;;;;;;;;;;;;;;18.31;43.25;97298.56;10410441;28;833;-72
2024/03/28 17:08:25;;;;;;;;;;;;;;;18.30;43.25;97305.66;10408918;28;1952;-72
2024/03/28 17:13:24;;;;;;;;;;;;;;;18.29;43.32;97297.88;10410039;28;892;-72
2024/03/28 17:18:19;;;;;;;;;;;;;;;18.30;43.53;97291.63;10409851;28;897;-72
2024/03/28 17:23:15;;;;;;;;;;;;;;;18.30;43.40;97292.47;10408855;28;862;-70
2024/03/28 17:28:11;;;;;;;;;;;;;;;18.29;43.55;97290.81;10409927;28;1897;-72
2024/03/28 17:33:07;;;;;;;;;;;;;;;18.28;43.53;97283.00;10408818;28;951;-73
2024/03/28 17:38:03;;;;;;;;;;;;;;;18.24;43.55;97282.44;10408453;28;1074;-74
2024/03/28 17:42:59;;;;;;;;;;;;;;;18.23;43.48;97282.56;10408384;28;770;-73
2024/03/28 17:47:55;;;;;;;;;;;;;;;18.19;43.60;97274.09;10408923;28;1914;-73
2024/03/28 17:52:51;;;;;;;;;;;;;;;18.16;43.54;97277.81;10408038;28;841;-73
2024/03/28 17:57:46;;;;;;;;;;;;;;;18.14;43.58;97277.09;10408999;28;937;-73
2024/03/28 18:02:42;;;;;;;;;;;;;;;18.12;43.47;97276.38;10407755;28;932;-73
2024/03/28 18:07:38;;;;;;;;;;;;;;;18.11;43.49;97271.25;10407819;28;1955;-73
2024/03/28 18:12:34;;;;;;;;;;;;;;;18.09;43.39;97279.28;10407676;28;885;-73
2024/03/28 18:17:30;;;;;;;;;;;;;;;18.08;43.51;97285.53;10408034;28;826;-73
2024/03/28 18:22:27;;;;;;;;;;;;;;;18.07;43.53;97294.38;10407403;28;953;-73
2024/03/28 18:27:23;;;;;;;;;;;;;;;18.07;43.63;97289.13;10407520;28;1914;-73
2024/03/28 18:32:19;;;;;;;;;;;;;;;18.07;43.40;97304.09;10407865;28;881;-73
2024/03/28 18:37:14;;;;;;;;;;;;;;;18.07;43.42;97294.38;10411402;28;806;-73
2024/03/28 18:42:10;;;;;;;;;;;;;;;18.09;43.65;97307.44;10415484;28;801;-71
2024/03/28 18:47:06;;;;;;;;;;;;;;;18.10;43.82;97312.59;10414641;28;1959;-72
2024/03/28 18:52:02;;;;;;;;;;;;;;;18.12;43.79;97309.81;10415703;28;861;-72
2024/03/28 18:56:58;;;;;;;;;;;;;;;18.11;43.97;97316.91;10415468;28;897;-72
2024/03/28 19:01:54;;;;;;;;;;;;;;;18.14;43.98;97321.09;10415295;27;920;-72
2024/03/28 19:06:50;;;;;;;;;;;;;;;18.14;44.04;97332.47;10414488;27;1898;-72
2024/03/28 19:11:46;;;;;;;;;;;;;;;18.16;44.00;97337.63;10414934;28;792;-72
2024/03/28 19:16:41;;;;;;;;;;;;;;;18.16;44.15;97342.91;10414765;27;794;-72
2024/03/28 19:21:37;;;;;;;;;;;;;;;18.17;44.05;97341.91;10414527;28;860;-72
2024/03/28 19:26:33;;;;;;;;;;;;;;;18.18;44.14;97355.00;10413437;28;1897;-72
2024/03/28 19:31:29;;;;;;;;;;;;;;;18.18;43.98;97368.16;10413809;28;867;-72
2024/03/28 19:36:28;;;;;;;;;;;;;;;18.21;44.05;97371.50;10414752;28;889;-72
2024/03/28 19:41:24;;;;;;;;;;;;;;;18.22;44.09;97383.72;10413892;28;987;-72
2024/03/28 19:46:20;;;;;;;;;;;;;;;18.22;44.13;97395.09;10412504;28;1918;-71
2024/03/28 19:51:16;;;;;;;;;;;;;;;18.23;44.18;97402.03;10412837;28;766;-72
2024/03/28 19:56:12;;;;;;;;;;;;;;;18.25;44.07;97399.28;10411981;28;988;-71
2024/03/28 20:01:08;;;;;;;;;;;;;;;18.24;44.11;97405.53;10413051;28;826;-72
2024/03/28 20:06:04;;;;;;;;;;;;;;;18.24;44.05;97411.66;10411483;28;1897;-72
2024/03/28 20:11:00;;;;;;;;;;;;;;;18.25;44.07;97408.03;10411459;28;853;-71
2024/03/28 20:15:55;;;;;;;;;;;;;;;18.26;43.82;97417.63;10413085;28;925;-72
2024/03/28 20:20:52;;;;;;;;;;;;;;;18.26;43.96;97414.13;10412183;28;896;-72
2024/03/28 20:25:48;;;;;;;;;;;;;;;18.26;44.10;97400.97;10411439;28;1905;-71
2024/03/28 20:30:43;;;;;;;;;;;;;;;18.26;43.90;97415.00;10411797;28;869;-71
2024/03/28 20:35:40;;;;;;;;;;;;;;;18.27;43.95;97421.09;10410429;27;1071;-71
2024/03/28 20:40:36;;;;;;;;;;;;;;;18.26;43.84;97432.59;10410789;28;830;-71
2024/03/28 20:45:33;;;;;;;;;;;;;;;18.26;43.89;97445.78;10410707;28;1977;-71
2024/03/28 20:50:28;;;;;;;;;;;;;;;18.26;43.89;97458.97;10409728;28;1149;-71
2024/03/28 20:55:24;;;;;;;;;;;;;;;18.24;43.95;97466.19;10410218;28;888;-71
2024/03/28 21:00:20;;;;;;;;;;;;;;;18.23;43.67;97483.78;10408574;28;854;-71
2024/03/28 21:05:16;;;;;;;;;;;;;;;18.23;43.71;97496.13;10410326;28;1901;-71
2024/03/28 21:15:40;;;;;;;;;;;;;;;18.21;43.71;97492.78;10374894;28;1294;-71
2024/03/28 21:20:37;;;;;;;;;;;;;;;18.20;43.80;97505.13;10408624;28;1523;-71
2024/03/28 21:25:33;;;;;;;;;;;;;;;18.20;43.70;97509.56;10409289;28;1897;-71
2024/03/28 21:30:29;;;;;;;;;;;;;;;18.18;43.61;97499.13;10409165;28;838;-71
2024/03/28 21:35:25;;;;;;;;;;;;;;;18.17;43.78;97514.13;10409375;28;872;-71
2024/03/28 21:40:21;;;;;;;;;;;;;;;18.16;43.69;97507.19;10408454;28;921;-71
2024/03/28 21:45:16;;;;;;;;;;;;;;;18.15;43.48;97518.69;10407673;27;1910;-71
2024/03/28 21:50:12;;;;;;;;;;;;;;;18.16;43.59;97532.72;10408868;28;805;-71
2024/03/28 21:55:08;;;;;;;;;;;;;;;18.14;43.41;97543.38;10408062;28;790;-71
2024/03/28 22:00:04;;;;;;;;;;;;;;;18.13;43.32;97541.72;10407869;28;924;-71
2024/03/28 22:05:00;;;;;;;;;;;;;;;18.12;43.54;97542.66;10408443;28;1897;-71
2024/03/28 22:09:56;;;;;;;;;;;;;;;18.10;43.29;97549.00;10407492;28;841;-71
2024/03/28 22:14:52;;;;;;;;;;;;;;;18.08;43.36;97557.06;10406973;28;921;-71
2024/03/28 22:19:48;;;;;;;;;;;;;;;18.06;43.15;97548.44;10408339;28;861;-71
2024/03/28 22:24:45;;;;;;;;;;;;;;;18.04;43.17;97555.63;10407500;28;1893;-70
2024/03/28 22:29:41;;;;;;;;;;;;;;;18.04;43.40;97554.78;10407605;28;838;-70
2024/03/28 22:34:39;;;;;;;;;;;;;;;18.01;43.26;97558.50;10407704;28;1698;-70
2024/03/28 22:39:34;;;;;;;;;;;;;;;18.00;43.13;97563.88;10407442;28;960;-70
2024/03/28 22:44:30;;;;;;;;;;;;;;;17.99;43.07;97562.22;10407218;28;1980;-70
2024/03/28 22:49:26;;;;;;;;;;;;;;;17.97;43.28;97567.59;10407939;28;854;-70
2024/03/28 22:54:22;;;;;;;;;;;;;;;17.95;43.39;97557.19;10407781;28;834;-70
2024/03/28 22:59:18;;;;;;;;;;;;;;;17.94;43.34;97566.03;10407768;28;861;-70
2024/03/28 23:04:14;;;;;;;;;;;;;;;17.93;43.34;97558.25;10407555;28;1965;-70
2024/03/28 23:09:10;;;;;;;;;;;;;;;17.93;43.11;97563.53;10406122;28;1064;-70
2024/03/28 23:14:05;;;;;;;;;;;;;;;17.90;43.36;97561.97;10406157;28;818;-70
2024/03/28 23:19:01;;;;;;;;;;;;;;;17.90;43.13;97566.41;10406669;28;858;-70
2024/03/28 23:23:57;;;;;;;;;;;;;;;17.87;43.40;97562.22;10410641;28;1955;-70
2024/03/28 23:28:53;;;;;;;;;;;;;;;17.87;43.14;97567.50;10414474;28;1462;-70
2024/03/28 23:33:49;;;;;;;;;;;;;;;17.87;43.37;97566.66;10413858;28;816;-70
2024/03/28 23:38:45;;;;;;;;;;;;;;;17.85;43.31;97555.41;10413539;28;853;-70
2024/03/28 23:43:41;;;;;;;;;;;;;;;17.84;43.31;97564.25;10414653;28;858;-70
2024/03/28 23:48:37;;;;;;;;;;;;;;;17.83;43.21;97563.41;10413761;27;1910;-70
2024/03/28 23:53:32;;;;;;;;;;;;;;;17.82;43.33;97560.91;10412430;28;1231;-70
2024/03/28 23:58:28;;;;;;;;;;;;;;;17.81;43.46;97554.78;10413479;28;858;-70
